createdAt,value
2019-05-20T00:02:27.492Z,19.35
2019-05-20T00:04:54.062Z,19.52
2019-05-20T00:07:23.943Z,19.68
2019-05-20T00:09:53.825Z,19.90
2019-05-20T00:12:23.704Z,19.91
2019-05-20T00:14:53.582Z,19.41
2019-05-20T00:17:23.512Z,19.19
2019-05-20T00:19:53.419Z,19.52
2019-05-20T00:22:23.294Z,19.40
2019-05-20T00:24:53.263Z,19.54
2019-05-20T00:27:23.143Z,19.78
2019-05-20T00:29:53.058Z,19.51
2019-05-20T00:32:22.952Z,19.22
2019-05-20T00:34:52.961Z,19.01
2019-05-20T00:37:22.845Z,19.30
2019-05-20T00:39:53.081Z,19.10
2019-05-20T00:42:22.927Z,19.22
2019-05-20T00:44:52.848Z,19.32
2019-05-20T00:47:22.736Z,19.09
2019-05-20T00:49:52.609Z,19.58
2019-05-20T00:52:22.573Z,19.79
2019-05-20T00:54:52.447Z,19.42
2019-05-20T00:57:22.349Z,19.36
2019-05-20T00:59:52.232Z,19.72
2019-05-20T01:02:22.155Z,19.97
2019-05-20T01:04:52.045Z,19.26
2019-05-20T01:07:21.949Z,19.48
2019-05-20T01:09:51.897Z,19.34
2019-05-20T01:12:21.783Z,19.70
2019-05-20T01:14:51.922Z,19.78
2019-05-20T01:17:21.814Z,19.70
2019-05-20T01:19:51.749Z,19.69
2019-05-20T01:22:21.628Z,19.42
2019-05-20T01:24:51.583Z,19.52
2019-05-20T01:27:21.715Z,19.53
2019-05-20T01:29:51.661Z,18.91
2019-05-20T01:32:21.551Z,19.04
2019-05-20T01:34:51.484Z,19.20
2019-05-20T01:37:21.381Z,19.10
2019-05-20T01:39:51.278Z,19.35
2019-05-20T01:42:21.179Z,19.21
2019-05-20T01:44:51.077Z,19.10
2019-05-20T01:47:21.054Z,19.36
2019-05-20T01:49:50.904Z,19.58
2019-05-20T01:52:20.862Z,19.74
2019-05-20T01:54:50.720Z,19.43
2019-05-20T01:57:20.598Z,19.57
2019-05-20T01:59:50.456Z,18.83
2019-05-20T02:02:20.564Z,19.34
2019-05-20T02:04:50.513Z,19.34
2019-05-20T02:07:20.567Z,18.82
2019-05-20T02:09:50.452Z,18.87
2019-05-20T02:12:20.360Z,18.88
2019-05-20T02:14:55.485Z,18.76
2019-05-20T02:17:25.725Z,19.06
2019-05-20T02:19:55.698Z,18.84
2019-05-20T02:22:25.600Z,18.42
2019-05-20T02:24:55.474Z,18.49
2019-05-20T02:27:25.379Z,18.60
2019-05-20T02:29:55.267Z,18.64
2019-05-20T02:32:25.235Z,18.80
2019-05-20T02:34:55.125Z,18.26
2019-05-20T02:37:25.145Z,18.24
2019-05-20T02:39:55.043Z,18.49
2019-05-20T02:42:24.905Z,19.22
2019-05-20T02:44:54.793Z,18.84
2019-05-20T02:47:24.730Z,18.60
2019-05-20T02:49:54.663Z,18.41
2019-05-20T02:52:24.541Z,18.12
2019-05-20T02:54:54.659Z,17.86
2019-05-20T02:57:24.544Z,18.01
2019-05-20T02:59:54.431Z,18.11
2019-05-20T03:02:24.926Z,18.37
2019-05-20T03:04:54.885Z,18.50
2019-05-20T03:07:24.776Z,18.50
2019-05-20T03:09:54.662Z,17.70
2019-05-20T03:12:24.530Z,17.81
2019-05-20T03:14:54.419Z,17.72
2019-05-20T03:17:24.341Z,17.85
2019-05-20T03:19:54.256Z,18.43
2019-05-20T03:22:24.257Z,17.94
2019-05-20T03:24:54.159Z,17.95
2019-05-20T03:27:24.041Z,17.78
2019-05-20T03:29:54.021Z,18.03
2019-05-20T03:32:23.928Z,17.74
2019-05-20T03:34:59.403Z,18.72
2019-05-20T03:37:25.422Z,18.13
2019-05-20T03:39:55.369Z,18.59
2019-05-20T03:42:25.248Z,18.46
2019-05-20T03:44:55.165Z,18.61
2019-05-20T03:47:25.035Z,18.37
2019-05-20T03:49:54.915Z,18.46
2019-05-20T03:52:24.816Z,18.30
2019-05-20T03:54:54.724Z,18.32
2019-05-20T03:57:24.601Z,18.32
2019-05-20T03:59:54.591Z,18.92
2019-05-20T04:02:24.519Z,19.03
2019-05-20T04:05:02.286Z,19.24
2019-05-20T04:07:26.051Z,19.87
2019-05-20T04:09:55.951Z,20.09
2019-05-20T04:12:25.981Z,19.44
2019-05-20T04:14:55.870Z,19.07
2019-05-20T04:17:25.800Z,20.31
2019-05-20T04:19:55.995Z,21.70
2019-05-20T04:22:25.922Z,21.59
2019-05-20T04:24:55.804Z,21.34
2019-05-20T04:27:25.760Z,20.90
2019-05-20T04:29:55.651Z,21.20
2019-05-20T04:32:25.867Z,21.39
2019-05-20T04:34:55.758Z,21.08
2019-05-20T04:37:25.769Z,20.16
2019-05-20T04:39:55.662Z,19.98
2019-05-20T04:42:25.556Z,18.99
2019-05-20T04:44:55.507Z,19.09
2019-05-20T04:47:25.640Z,19.59
2019-05-20T04:49:55.527Z,20.39
2019-05-20T04:52:25.443Z,19.91
2019-05-20T04:54:55.308Z,19.55
2019-05-20T04:57:25.978Z,19.86
2019-05-20T04:59:55.857Z,19.11
2019-05-20T05:02:25.743Z,19.10
2019-05-20T05:04:55.636Z,18.66
2019-05-20T05:07:25.604Z,18.76
2019-05-20T05:09:55.607Z,19.10
2019-05-20T05:12:25.678Z,19.26
2019-05-20T05:14:55.867Z,19.63
2019-05-20T05:17:25.934Z,19.72
2019-05-20T05:19:56.046Z,18.96
2019-05-20T05:22:25.959Z,19.42
2019-05-20T05:24:55.916Z,19.69
2019-05-20T05:27:26.501Z,19.69
2019-05-20T05:29:56.881Z,19.55
2019-05-20T05:32:42.380Z,20.79
2019-05-20T05:35:15.852Z,21.21
2019-05-20T05:37:46.088Z,21.23
2019-05-20T05:40:16.929Z,20.56
2019-05-20T05:42:47.004Z,20.61
2019-05-20T05:45:18.420Z,20.42
2019-05-20T05:47:48.308Z,19.80
2019-05-20T05:50:19.634Z,19.85
2019-05-20T05:52:49.711Z,19.22
2019-05-20T05:55:19.618Z,19.25
2019-05-20T05:57:49.514Z,19.59
2019-05-20T06:00:19.890Z,19.75
2019-05-20T06:02:49.835Z,20.84
2019-05-20T06:05:20.169Z,23.28
2019-05-20T06:07:50.158Z,24.39
2019-05-20T06:10:22.353Z,23.38
2019-05-20T06:12:52.202Z,21.31
2019-05-20T06:15:23.449Z,21.35
2019-05-20T06:17:53.429Z,20.97
2019-05-20T06:20:23.646Z,20.71
2019-05-20T06:22:53.608Z,21.38
2019-05-20T06:25:23.580Z,21.46
2019-05-20T06:27:53.513Z,21.46
2019-05-20T06:30:38.422Z,22.04
2019-05-20T06:33:08.747Z,21.52
2019-05-20T06:35:38.705Z,20.53
2019-05-20T06:38:13.368Z,20.05
2019-05-20T06:40:43.306Z,20.72
2019-05-20T06:43:13.241Z,20.20
2019-05-20T06:45:43.132Z,20.48
2019-05-20T06:48:13.100Z,21.03
2019-05-20T06:50:43.039Z,20.45
2019-05-20T06:53:12.933Z,20.41
2019-05-20T06:55:42.877Z,20.70
2019-05-20T06:58:12.814Z,20.95
2019-05-20T07:00:42.752Z,21.82
2019-05-20T07:03:12.763Z,22.21
2019-05-20T07:08:11.380Z,21.82
2019-05-20T07:10:41.334Z,21.72
2019-05-20T07:13:11.243Z,21.18
2019-05-20T07:15:41.163Z,22.17
2019-05-20T07:18:11.080Z,21.84
2019-05-20T07:20:41.009Z,22.44
2019-05-20T07:23:10.988Z,21.70
2019-05-20T07:25:40.911Z,21.42
2019-05-20T07:28:10.919Z,21.52
2019-05-20T07:30:40.980Z,21.38
2019-05-20T07:33:11.113Z,22.29
2019-05-20T07:35:41.011Z,21.47
2019-05-20T07:38:14.116Z,21.40
2019-05-20T07:40:44.189Z,21.95
2019-05-20T07:43:15.183Z,22.62
2019-05-20T07:45:46.739Z,22.05
2019-05-20T07:48:18.821Z,21.90
2019-05-20T07:50:50.359Z,21.85
2019-05-20T07:53:21.100Z,21.72
2019-05-20T07:56:08.718Z,21.70
2019-05-20T07:58:41.188Z,21.99
2019-05-20T08:01:11.481Z,22.60
2019-05-20T08:03:41.516Z,21.93
2019-05-20T08:06:11.888Z,21.90
2019-05-20T08:08:41.928Z,22.23
2019-05-20T08:11:12.281Z,22.03
2019-05-20T08:13:42.284Z,21.78
2019-05-20T08:16:12.771Z,22.16
2019-05-20T08:18:43.059Z,21.77
2019-05-20T08:21:13.634Z,22.15
2019-05-20T08:23:43.809Z,22.43
2019-05-20T08:26:14.093Z,22.63
2019-05-20T08:28:43.954Z,22.74
2019-05-20T08:31:13.829Z,22.67
2019-05-20T08:33:43.944Z,22.70
2019-05-20T08:36:13.836Z,22.65
2019-05-20T08:38:43.754Z,22.73
2019-05-20T08:41:13.753Z,22.28
2019-05-20T08:43:43.617Z,22.40
2019-05-20T08:46:13.576Z,22.32
2019-05-20T08:48:43.505Z,23.39
2019-05-20T08:51:13.438Z,23.04
2019-05-20T08:53:43.344Z,22.66
2019-05-20T08:56:13.232Z,22.60
2019-05-20T08:58:43.146Z,22.92
2019-05-20T09:01:13.051Z,22.92
2019-05-20T09:03:42.926Z,22.96
2019-05-20T09:06:12.902Z,22.93
2019-05-20T09:08:42.929Z,22.83
2019-05-20T09:11:12.914Z,23.46
2019-05-20T09:13:42.852Z,23.34
2019-05-20T09:16:12.818Z,23.21
2019-05-20T09:18:42.836Z,23.37
2019-05-20T09:21:13.019Z,23.33
2019-05-20T09:23:42.887Z,24.13
2019-05-20T09:26:13.190Z,24.23
2019-05-20T09:28:43.264Z,23.83
2019-05-20T09:31:13.412Z,23.93
2019-05-20T09:33:43.787Z,23.86
2019-05-20T09:36:13.964Z,24.21
2019-05-20T09:38:44.006Z,24.22
2019-05-20T09:41:13.903Z,23.92
2019-05-20T09:43:43.864Z,24.01
2019-05-20T09:46:13.960Z,24.17
2019-05-20T09:48:43.828Z,23.90
2019-05-20T09:51:13.767Z,23.95
2019-05-20T09:53:43.658Z,23.89
2019-05-20T09:56:13.557Z,24.54
2019-05-20T09:58:43.555Z,24.82
2019-05-20T10:01:13.429Z,24.15
2019-05-20T10:03:43.441Z,23.96
2019-05-20T10:06:13.473Z,24.06
2019-05-20T10:08:45.024Z,23.95
2019-05-20T10:11:15.087Z,24.20
2019-05-20T10:13:45.013Z,24.16
2019-05-20T10:16:14.917Z,24.08
2019-05-20T10:18:44.801Z,23.92
2019-05-20T10:21:14.775Z,24.29
2019-05-20T10:23:44.750Z,24.51
2019-05-20T10:26:15.042Z,24.48
2019-05-20T10:28:47.321Z,24.73
2019-05-20T10:31:16.667Z,24.56
2019-05-20T10:33:46.618Z,24.54
2019-05-20T10:36:16.513Z,24.35
2019-05-20T10:38:57.439Z,24.48
2019-05-20T10:41:18.090Z,24.52
2019-05-20T10:43:47.975Z,25.14
2019-05-20T10:46:17.901Z,24.65
2019-05-20T10:48:47.839Z,24.70
2019-05-20T10:51:17.760Z,24.71
2019-05-20T10:53:47.742Z,24.56
2019-05-20T10:56:17.655Z,24.52
2019-05-20T10:58:47.670Z,25.15
2019-05-20T11:01:17.552Z,25.75
2019-05-20T11:03:47.497Z,25.33
2019-05-20T11:06:17.418Z,24.96
2019-05-20T11:08:47.382Z,25.24
2019-05-20T11:11:17.265Z,25.03
2019-05-20T11:13:47.211Z,25.07
2019-05-20T11:16:17.203Z,25.49
2019-05-20T11:18:47.101Z,25.48
2019-05-20T11:21:17.039Z,25.17
2019-05-20T11:23:46.930Z,25.23
2019-05-20T11:26:16.919Z,24.92
2019-05-20T11:28:46.855Z,24.78
2019-05-20T11:31:16.812Z,24.71
2019-05-20T11:33:47.209Z,24.68
2019-05-20T11:36:17.242Z,24.50
2019-05-20T11:38:47.208Z,24.31
2019-05-20T11:41:17.442Z,25.02
2019-05-20T11:43:51.943Z,24.80
2019-05-20T11:46:22.272Z,24.65
2019-05-20T11:48:52.109Z,24.66
2019-05-20T11:51:22.146Z,24.82
2019-05-20T11:53:52.076Z,25.05
2019-05-20T11:56:22.000Z,25.03
2019-05-20T11:58:51.901Z,25.19
2019-05-20T12:01:21.879Z,24.84
2019-05-20T12:03:51.807Z,24.93
2019-05-20T12:06:21.735Z,24.81
2019-05-20T12:08:51.611Z,24.82
2019-05-20T12:11:21.559Z,24.96
2019-05-20T12:13:51.457Z,25.08
2019-05-20T12:16:21.395Z,25.20
2019-05-20T12:18:51.465Z,25.08
2019-05-20T12:21:21.386Z,24.93
2019-05-20T12:23:51.407Z,24.80
2019-05-20T12:26:22.710Z,24.61
2019-05-20T12:28:53.007Z,24.54
2019-05-20T12:31:22.872Z,24.51
2019-05-20T12:33:52.779Z,24.53
2019-05-20T12:36:23.262Z,24.43
2019-05-20T12:38:53.184Z,24.89
2019-05-20T12:41:23.160Z,24.55
2019-05-20T12:44:09.589Z,24.65
2019-05-20T12:46:24.703Z,24.83
2019-05-20T12:48:54.656Z,24.73
2019-05-20T12:51:24.806Z,24.42
2019-05-20T12:53:54.690Z,24.65
2019-05-20T12:56:24.630Z,24.75
2019-05-20T12:58:54.656Z,24.59
2019-05-20T13:01:24.573Z,25.07
2019-05-20T13:03:54.956Z,25.67
2019-05-20T13:06:24.921Z,25.56
2019-05-20T13:08:54.941Z,25.06
2019-05-20T13:11:25.286Z,24.86
2019-05-20T13:13:55.247Z,25.03
2019-05-20T13:16:25.117Z,25.11
2019-05-20T13:18:56.416Z,24.79
2019-05-20T13:21:26.551Z,24.32
2019-05-20T13:23:57.422Z,24.57
2019-05-20T13:26:27.890Z,25.43
2019-05-20T13:28:59.553Z,25.62
2019-05-20T13:31:29.578Z,24.91
2019-05-20T13:33:59.544Z,24.74
2019-05-20T13:36:29.420Z,24.58
2019-05-20T13:38:59.353Z,25.23
2019-05-20T13:41:29.345Z,24.76
2019-05-20T13:43:59.530Z,25.54
2019-05-20T13:46:29.390Z,25.10
2019-05-20T13:48:59.269Z,24.95
2019-05-20T13:51:29.137Z,24.28
2019-05-20T13:53:59.063Z,24.54
2019-05-20T13:56:29.016Z,24.32
2019-05-20T13:58:58.915Z,24.08
2019-05-20T14:01:28.877Z,24.07
2019-05-20T14:03:59.049Z,24.41
2019-05-20T14:06:28.943Z,24.06
2019-05-20T14:08:58.994Z,24.34
2019-05-20T14:11:34.567Z,24.08
2019-05-20T14:14:01.427Z,24.32
2019-05-20T14:16:31.310Z,24.28
2019-05-20T14:19:01.448Z,24.27
2019-05-20T14:21:31.351Z,24.47
2019-05-20T14:24:01.278Z,23.83
2019-05-20T14:26:31.238Z,23.88
2019-05-20T14:29:01.427Z,24.50
2019-05-20T14:31:31.462Z,24.29
2019-05-20T14:34:01.562Z,24.52
2019-05-20T14:36:39.061Z,23.85
2019-05-20T14:39:04.453Z,23.64
2019-05-20T14:41:34.448Z,24.29
2019-05-20T14:44:04.490Z,23.92
2019-05-20T14:46:34.442Z,23.26
2019-05-20T14:49:04.366Z,23.15
2019-05-20T14:51:34.276Z,23.30
2019-05-20T14:54:04.405Z,23.67
2019-05-20T14:56:34.810Z,23.49
2019-05-20T14:59:04.893Z,23.62
2019-05-20T15:01:35.069Z,23.97
2019-05-20T15:04:05.189Z,24.14
2019-05-20T15:06:35.097Z,23.98
2019-05-20T15:09:06.250Z,24.19
2019-05-20T15:11:38.608Z,24.06
2019-05-20T15:14:07.870Z,23.87
2019-05-20T15:16:38.283Z,23.66
2019-05-20T15:19:08.319Z,23.16
2019-05-20T15:21:38.248Z,22.49
2019-05-20T15:24:08.453Z,21.19
2019-05-20T15:26:38.344Z,19.95
2019-05-20T15:29:08.245Z,19.30
2019-05-20T15:31:38.150Z,19.07
2019-05-20T15:34:08.792Z,18.99
2019-05-20T15:36:38.722Z,19.68
2019-05-20T15:39:08.651Z,20.10
2019-05-20T15:41:38.614Z,20.47
2019-05-20T15:44:08.531Z,20.42
2019-05-20T15:46:38.434Z,19.88
2019-05-20T15:49:08.363Z,21.17
2019-05-20T15:51:38.379Z,21.54
2019-05-20T15:54:08.352Z,21.68
2019-05-20T15:56:38.642Z,21.63
2019-05-20T15:59:08.723Z,21.34
2019-05-20T16:01:38.829Z,20.57
2019-05-20T16:04:08.898Z,20.05
2019-05-20T16:06:38.818Z,20.29
2019-05-20T16:09:09.388Z,20.90
2019-05-20T16:11:39.394Z,21.35
2019-05-20T16:14:09.396Z,20.83
2019-05-20T16:16:39.330Z,20.35
2019-05-20T16:19:09.286Z,21.06
2019-05-20T16:21:39.475Z,21.25
2019-05-20T16:24:09.495Z,20.85
2019-05-20T16:26:39.509Z,21.16
2019-05-20T16:29:09.608Z,21.04
2019-05-20T16:31:39.534Z,20.84
2019-05-20T16:34:09.508Z,21.55
2019-05-20T16:36:39.966Z,21.52
2019-05-20T16:39:10.088Z,21.77
2019-05-20T16:41:40.055Z,21.86
2019-05-20T16:44:10.082Z,21.43
2019-05-20T16:46:40.101Z,21.76
2019-05-20T16:49:10.070Z,21.72
2019-05-20T16:51:40.096Z,21.85
2019-05-20T16:54:09.981Z,21.75
2019-05-20T16:56:41.189Z,21.40
2019-05-20T16:59:11.065Z,21.59
2019-05-20T17:01:46.247Z,21.50
2019-05-20T17:04:12.859Z,21.61
2019-05-20T17:06:42.929Z,21.45
2019-05-20T17:09:12.907Z,21.29
2019-05-20T17:11:42.904Z,21.52
2019-05-20T17:14:12.795Z,21.38
2019-05-20T17:16:42.708Z,21.19
2019-05-20T17:19:12.794Z,20.95
2019-05-20T17:21:42.707Z,20.82
2019-05-20T17:24:12.698Z,21.01
2019-05-20T17:26:42.702Z,20.69
2019-05-20T17:29:12.620Z,20.33
2019-05-20T17:31:42.563Z,20.33
2019-05-20T17:34:12.606Z,20.46
2019-05-20T17:36:42.565Z,20.23
2019-05-20T17:39:12.633Z,20.31
2019-05-20T17:41:42.608Z,20.21
2019-05-20T17:44:12.545Z,19.90
2019-05-20T17:46:42.650Z,20.02
2019-05-20T17:49:12.827Z,19.96
2019-05-20T17:51:43.471Z,20.21
2019-05-20T17:54:13.614Z,20.79
2019-05-20T17:56:43.511Z,20.49
2019-05-20T17:59:13.655Z,20.41
2019-05-20T18:01:43.959Z,20.42
2019-05-20T18:04:13.918Z,20.41
2019-05-20T18:06:43.937Z,19.93
2019-05-20T18:09:15.771Z,19.86
2019-05-20T18:11:46.549Z,20.48
2019-05-20T18:14:16.547Z,20.83
2019-05-20T18:16:47.112Z,20.79
2019-05-20T18:19:17.579Z,20.49
2019-05-20T18:21:48.595Z,20.23
2019-05-20T18:24:18.676Z,20.36
2019-05-20T18:26:48.578Z,20.40
2019-05-20T18:29:18.574Z,20.54
2019-05-20T18:31:48.617Z,20.30
2019-05-20T18:34:18.538Z,20.51
2019-05-20T18:36:48.528Z,21.00
2019-05-20T18:39:18.675Z,20.02
2019-05-20T18:41:48.579Z,19.61
2019-05-20T18:44:18.549Z,20.00
2019-05-20T18:46:48.435Z,20.42
2019-05-20T18:49:18.514Z,20.23
2019-05-20T18:51:48.447Z,19.66
2019-05-20T18:54:19.009Z,19.83
2019-05-20T18:56:48.867Z,19.76
2019-05-20T18:59:19.017Z,20.08
2019-05-20T19:02:03.843Z,20.28
2019-05-20T19:04:20.602Z,20.82
2019-05-20T19:06:51.176Z,20.38
2019-05-20T19:09:21.046Z,19.93
2019-05-20T19:11:50.949Z,19.86
2019-05-20T19:14:20.890Z,19.72
2019-05-20T19:16:50.927Z,19.60
2019-05-20T19:19:20.944Z,19.35
2019-05-20T19:21:50.934Z,19.60
2019-05-20T19:24:20.910Z,19.75
2019-05-20T19:26:51.046Z,19.32
2019-05-20T19:29:21.007Z,19.63
2019-05-20T19:32:01.494Z,19.92
2019-05-20T19:34:22.757Z,20.05
2019-05-20T19:36:52.663Z,20.39
2019-05-20T19:39:22.613Z,20.08
2019-05-20T19:41:52.845Z,20.79
2019-05-20T19:44:22.832Z,20.83
2019-05-20T19:46:52.728Z,20.14
2019-05-20T19:49:22.790Z,20.07
2019-05-20T19:51:52.833Z,20.70
2019-05-20T19:54:22.712Z,20.82
2019-05-20T19:56:52.619Z,20.34
2019-05-20T19:59:22.515Z,20.96
2019-05-20T20:01:52.476Z,20.07
2019-05-20T20:04:22.566Z,20.34
2019-05-20T20:06:52.463Z,20.86
2019-05-20T20:09:22.344Z,20.49
2019-05-20T20:11:52.539Z,20.73
2019-05-20T20:14:22.467Z,20.18
2019-05-20T20:16:52.475Z,20.12
2019-05-20T20:19:23.046Z,20.16
2019-05-20T20:21:52.986Z,20.35
2019-05-20T20:24:25.120Z,20.42
2019-05-20T20:26:55.848Z,20.57
2019-05-20T20:29:25.744Z,20.23
2019-05-20T20:31:55.968Z,20.04
2019-05-20T20:34:25.839Z,20.03
2019-05-20T20:36:56.143Z,20.20
2019-05-20T20:39:26.684Z,20.23
2019-05-20T20:41:57.754Z,20.70
2019-05-20T20:44:28.142Z,19.99
2019-05-20T20:46:58.219Z,19.90
2019-05-20T20:49:28.648Z,20.30
2019-05-20T20:51:59.042Z,20.18
2019-05-20T20:54:29.569Z,20.37
2019-05-20T20:57:00.072Z,20.51
2019-05-20T20:59:30.772Z,20.47
2019-05-20T21:02:00.917Z,20.53
2019-05-20T21:04:30.826Z,20.56
2019-05-20T21:07:00.694Z,20.65
2019-05-20T21:09:30.834Z,20.35
2019-05-20T21:12:00.730Z,20.78
2019-05-20T21:14:34.840Z,20.81
2019-05-20T21:17:04.826Z,20.58
2019-05-20T21:19:34.703Z,20.25
2019-05-20T21:22:04.740Z,20.57
2019-05-20T21:24:35.526Z,20.30
2019-05-20T21:27:05.569Z,20.11
2019-05-20T21:29:37.596Z,20.44
2019-05-20T21:32:07.535Z,20.48
2019-05-20T21:34:37.440Z,20.55
2019-05-20T21:37:09.025Z,20.42
2019-05-20T21:39:40.676Z,20.30
2019-05-20T21:42:11.935Z,20.47
2019-05-20T21:44:41.814Z,20.50
2019-05-20T21:47:11.717Z,20.43
2019-05-20T21:49:41.689Z,20.31
2019-05-20T21:52:11.697Z,20.16
2019-05-20T21:54:41.550Z,19.88
2019-05-20T21:57:11.466Z,20.30
2019-05-20T21:59:41.355Z,19.93
2019-05-20T22:02:11.220Z,20.15
2019-05-20T22:04:41.098Z,20.20
2019-05-20T22:07:10.988Z,20.09
2019-05-20T22:09:40.888Z,20.07
2019-05-20T22:12:10.857Z,19.95
2019-05-20T22:14:40.848Z,19.56
2019-05-20T22:17:11.083Z,19.93
2019-05-20T22:19:41.319Z,19.64
2019-05-20T22:22:21.558Z,19.89
2019-05-20T22:24:51.635Z,20.03
2019-05-20T22:27:21.644Z,19.87
2019-05-20T22:29:51.556Z,19.70
2019-05-20T22:32:21.505Z,19.97
2019-05-20T22:34:53.913Z,19.71
2019-05-20T22:37:23.206Z,19.85
2019-05-20T22:39:53.100Z,19.68
2019-05-20T22:42:23.025Z,19.77
2019-05-20T22:44:52.924Z,19.76
2019-05-20T22:47:22.921Z,19.63
2019-05-20T22:49:52.846Z,19.71
2019-05-20T22:52:22.810Z,19.70
2019-05-20T22:54:52.763Z,19.47
2019-05-20T22:57:22.659Z,19.69
2019-05-20T22:59:52.552Z,19.55
2019-05-20T23:02:22.504Z,19.58
2019-05-20T23:04:52.418Z,19.53
2019-05-20T23:07:22.434Z,19.54
2019-05-20T23:09:52.359Z,19.55
2019-05-20T23:12:22.244Z,19.30
2019-05-20T23:14:52.193Z,19.36
2019-05-20T23:17:22.144Z,19.26
2019-05-20T23:19:52.032Z,19.30
2019-05-20T23:22:21.919Z,19.20
2019-05-20T23:24:51.802Z,19.28
2019-05-20T23:27:21.989Z,19.20
2019-05-20T23:29:51.869Z,19.30
2019-05-20T23:32:21.923Z,19.16
2019-05-20T23:34:52.076Z,19.23
2019-05-20T23:37:21.962Z,19.04
2019-05-20T23:39:51.973Z,18.90
2019-05-20T23:42:21.865Z,19.00
2019-05-20T23:44:51.739Z,18.89
2019-05-20T23:47:21.630Z,18.59
2019-05-20T23:49:51.523Z,18.60
2019-05-20T23:52:21.823Z,18.41
2019-05-20T23:54:51.720Z,18.67
2019-05-20T23:57:21.611Z,18.71
2019-05-20T23:59:51.557Z,18.88
